sensor_id;sensor_type;location;lat;lon;timestamp;P1;durP1;ratioP1;P2;durP2;ratioP2
58553;SDS011;48119;53.218;6.576;2023-02-18T00:01:52;11.80;;;3.95;;
58553;SDS011;48119;53.218;6.576;2023-02-18T00:04:46;16.40;;;4.68;;
58553;SDS011;48119;53.218;6.576;2023-02-18T00:10:34;19.00;;;5.18;;
58553;SDS011;48119;53.218;6.576;2023-02-18T00:16:52;20.98;;;4.63;;
58553;SDS011;48119;53.218;6.576;2023-02-18T00:19:51;15.77;;;3.42;;
58553;SDS011;48119;53.218;6.576;2023-02-18T00:22:41;13.25;;;3.40;;
58553;SDS011;48119;53.218;6.576;2023-02-18T00:25:30;12.05;;;3.40;;
58553;SDS011;48119;53.218;6.576;2023-02-18T00:28:18;17.33;;;3.90;;
58553;SDS011;48119;53.218;6.576;2023-02-18T00:31:13;15.48;;;4.00;;
58553;SDS011;48119;53.218;6.576;2023-02-18T00:33:53;17.60;;;3.20;;
58553;SDS011;48119;53.218;6.576;2023-02-18T00:36:50;11.27;;;3.58;;
58553;SDS011;48119;53.218;6.576;2023-02-18T00:39:50;15.80;;;3.80;;
58553;SDS011;48119;53.218;6.576;2023-02-18T00:42:28;13.40;;;3.08;;
58553;SDS011;48119;53.218;6.576;2023-02-18T00:45:19;11.18;;;2.60;;
58553;SDS011;48119;53.218;6.576;2023-02-18T00:48:17;10.70;;;3.65;;
58553;SDS011;48119;53.218;6.576;2023-02-18T00:56:49;12.32;;;3.78;;
58553;SDS011;48119;53.218;6.576;2023-02-18T00:59:43;12.98;;;4.30;;
58553;SDS011;48119;53.218;6.576;2023-02-18T01:09:13;10.85;;;3.45;;
58553;SDS011;48119;53.218;6.576;2023-02-18T01:11:54;19.13;;;4.90;;
58553;SDS011;48119;53.218;6.576;2023-02-18T01:17:53;12.68;;;3.72;;
58553;SDS011;48119;53.218;6.576;2023-02-18T01:20:43;16.10;;;3.88;;
58553;SDS011;48119;53.218;6.576;2023-02-18T01:27:27;10.07;;;3.75;;
58553;SDS011;48119;53.218;6.576;2023-02-18T01:30:40;14.73;;;4.50;;
58553;SDS011;48119;53.218;6.576;2023-02-18T01:36:35;11.35;;;3.85;;
58553;SDS011;48119;53.218;6.576;2023-02-18T01:39:51;18.73;;;4.13;;
58553;SDS011;48119;53.218;6.576;2023-02-18T01:42:52;12.57;;;3.15;;
58553;SDS011;48119;53.218;6.576;2023-02-18T01:46:18;12.32;;;4.03;;
58553;SDS011;48119;53.218;6.576;2023-02-18T01:49:14;14.00;;;3.67;;
58553;SDS011;48119;53.218;6.576;2023-02-18T01:52:31;13.40;;;3.60;;
58553;SDS011;48119;53.218;6.576;2023-02-18T01:55:39;14.55;;;4.13;;
58553;SDS011;48119;53.218;6.576;2023-02-18T01:58:21;11.63;;;3.97;;
58553;SDS011;48119;53.218;6.576;2023-02-18T02:01:08;18.15;;;5.13;;
58553;SDS011;48119;53.218;6.576;2023-02-18T02:04:00;15.15;;;3.95;;
58553;SDS011;48119;53.218;6.576;2023-02-18T02:10:13;10.23;;;3.97;;
58553;SDS011;48119;53.218;6.576;2023-02-18T02:16:11;13.63;;;4.50;;
58553;SDS011;48119;53.218;6.576;2023-02-18T02:38:04;14.38;;;4.35;;
58553;SDS011;48119;53.218;6.576;2023-02-18T02:47:40;16.38;;;4.38;;
58553;SDS011;48119;53.218;6.576;2023-02-18T02:50:44;10.27;;;3.88;;
58553;SDS011;48119;53.218;6.576;2023-02-18T03:15:42;18.77;;;5.43;;
58553;SDS011;48119;53.218;6.576;2023-02-18T03:24:37;10.50;;;3.35;;
58553;SDS011;48119;53.218;6.576;2023-02-18T03:27:41;15.50;;;4.63;;
58553;SDS011;48119;53.218;6.576;2023-02-18T03:30:41;12.65;;;4.18;;
58553;SDS011;48119;53.218;6.576;2023-02-18T03:36:15;11.85;;;3.70;;
58553;SDS011;48119;53.218;6.576;2023-02-18T03:39:22;17.90;;;3.90;;
58553;SDS011;48119;53.218;6.576;2023-02-18T03:42:27;10.60;;;3.85;;
58553;SDS011;48119;53.218;6.576;2023-02-18T03:45:02;9.20;;;3.80;;
58553;SDS011;48119;53.218;6.576;2023-02-18T03:47:50;9.82;;;3.20;;
58553;SDS011;48119;53.218;6.576;2023-02-18T03:50:37;13.00;;;4.15;;
58553;SDS011;48119;53.218;6.576;2023-02-18T03:53:08;15.85;;;4.03;;
58553;SDS011;48119;53.218;6.576;2023-02-18T03:55:39;13.88;;;4.88;;
58553;SDS011;48119;53.218;6.576;2023-02-18T04:07:29;9.67;;;4.37;;
58553;SDS011;48119;53.218;6.576;2023-02-18T04:13:43;12.13;;;4.10;;
58553;SDS011;48119;53.218;6.576;2023-02-18T04:16:31;12.15;;;3.55;;
58553;SDS011;48119;53.218;6.576;2023-02-18T04:19:10;15.82;;;4.78;;
58553;SDS011;48119;53.218;6.576;2023-02-18T04:22:13;11.82;;;3.85;;
58553;SDS011;48119;53.218;6.576;2023-02-18T04:25:01;11.55;;;3.40;;
58553;SDS011;48119;53.218;6.576;2023-02-18T04:27:30;10.60;;;3.88;;
58553;SDS011;48119;53.218;6.576;2023-02-18T04:30:34;12.85;;;4.00;;
58553;SDS011;48119;53.218;6.576;2023-02-18T04:33:02;10.80;;;3.40;;
58553;SDS011;48119;53.218;6.576;2023-02-18T04:36:14;14.00;;;4.18;;
58553;SDS011;48119;53.218;6.576;2023-02-18T04:39:03;8.80;;;3.63;;
58553;SDS011;48119;53.218;6.576;2023-02-18T04:41:40;10.20;;;3.53;;
58553;SDS011;48119;53.218;6.576;2023-02-18T04:44:19;9.45;;;3.42;;
58553;SDS011;48119;53.218;6.576;2023-02-18T04:47:24;11.25;;;4.00;;
58553;SDS011;48119;53.218;6.576;2023-02-18T04:50:32;10.65;;;4.38;;
58553;SDS011;48119;53.218;6.576;2023-02-18T04:53:47;17.23;;;5.78;;
58553;SDS011;48119;53.218;6.576;2023-02-18T04:56:24;9.20;;;4.30;;
58553;SDS011;48119;53.218;6.576;2023-02-18T04:59:15;16.15;;;6.22;;
58553;SDS011;48119;53.218;6.576;2023-02-18T05:02:04;14.25;;;6.25;;
58553;SDS011;48119;53.218;6.576;2023-02-18T05:04:39;14.23;;;7.00;;
58553;SDS011;48119;53.218;6.576;2023-02-18T05:07:05;13.15;;;5.97;;
58553;SDS011;48119;53.218;6.576;2023-02-18T05:09:34;13.40;;;6.80;;
58553;SDS011;48119;53.218;6.576;2023-02-18T05:12:30;16.38;;;7.32;;
58553;SDS011;48119;53.218;6.576;2023-02-18T05:15:08;23.05;;;8.82;;
58553;SDS011;48119;53.218;6.576;2023-02-18T05:17:54;18.17;;;9.05;;
58553;SDS011;48119;53.218;6.576;2023-02-18T05:23:42;19.67;;;9.60;;
58553;SDS011;48119;53.218;6.576;2023-02-18T05:26:17;19.55;;;10.80;;
58553;SDS011;48119;53.218;6.576;2023-02-18T05:28:54;19.95;;;10.60;;
58553;SDS011;48119;53.218;6.576;2023-02-18T05:31:23;17.27;;;10.93;;
58553;SDS011;48119;53.218;6.576;2023-02-18T05:34:22;26.58;;;11.93;;
58553;SDS011;48119;53.218;6.576;2023-02-18T05:37:17;20.13;;;11.63;;
58553;SDS011;48119;53.218;6.576;2023-02-18T05:43:33;22.17;;;13.02;;
58553;SDS011;48119;53.218;6.576;2023-02-18T05:46:47;19.27;;;12.20;;
58553;SDS011;48119;53.218;6.576;2023-02-18T05:49:18;19.00;;;11.65;;
58553;SDS011;48119;53.218;6.576;2023-02-18T05:51:55;20.38;;;12.75;;
58553;SDS011;48119;53.218;6.576;2023-02-18T05:54:31;17.75;;;12.15;;
58553;SDS011;48119;53.218;6.576;2023-02-18T05:57:20;20.63;;;11.80;;
58553;SDS011;48119;53.218;6.576;2023-02-18T06:00:10;16.48;;;10.20;;
58553;SDS011;48119;53.218;6.576;2023-02-18T06:03:00;16.70;;;10.02;;
58553;SDS011;48119;53.218;6.576;2023-02-18T06:05:38;16.70;;;10.93;;
58553;SDS011;48119;53.218;6.576;2023-02-18T06:08:33;13.68;;;8.30;;
58553;SDS011;48119;53.218;6.576;2023-02-18T06:11:33;14.35;;;9.60;;
58553;SDS011;48119;53.218;6.576;2023-02-18T06:14:27;12.93;;;8.70;;
58553;SDS011;48119;53.218;6.576;2023-02-18T06:17:08;11.63;;;7.93;;
58553;SDS011;48119;53.218;6.576;2023-02-18T06:22:29;10.23;;;7.65;;
58553;SDS011;48119;53.218;6.576;2023-02-18T06:25:13;10.60;;;7.13;;
58553;SDS011;48119;53.218;6.576;2023-02-18T06:27:50;10.02;;;7.90;;
58553;SDS011;48119;53.218;6.576;2023-02-18T06:30:33;10.80;;;7.20;;
58553;SDS011;48119;53.218;6.576;2023-02-18T06:33:14;11.70;;;7.50;;
58553;SDS011;48119;53.218;6.576;2023-02-18T06:36:03;11.27;;;7.82;;
58553;SDS011;48119;53.218;6.576;2023-02-18T06:38:43;9.75;;;7.20;;
58553;SDS011;48119;53.218;6.576;2023-02-18T06:41:23;10.05;;;6.40;;
58553;SDS011;48119;53.218;6.576;2023-02-18T06:44:05;8.93;;;5.85;;
58553;SDS011;48119;53.218;6.576;2023-02-18T06:46:41;7.88;;;6.03;;
58553;SDS011;48119;53.218;6.576;2023-02-18T06:49:35;9.02;;;6.00;;
58553;SDS011;48119;53.218;6.576;2023-02-18T06:52:18;8.27;;;6.07;;
58553;SDS011;48119;53.218;6.576;2023-02-18T06:55:23;8.90;;;4.93;;
58553;SDS011;48119;53.218;6.576;2023-02-18T06:58:02;6.90;;;4.70;;
58553;SDS011;48119;53.218;6.576;2023-02-18T07:00:38;8.70;;;5.28;;
58553;SDS011;48119;53.218;6.576;2023-02-18T07:03:04;7.20;;;5.13;;
58553;SDS011;48119;53.218;6.576;2023-02-18T07:05:35;6.05;;;4.35;;
58553;SDS011;48119;53.218;6.576;2023-02-18T07:08:07;7.85;;;5.55;;
58553;SDS011;48119;53.218;6.576;2023-02-18T07:10:57;8.43;;;5.50;;
58553;SDS011;48119;53.218;6.576;2023-02-18T07:13:55;8.80;;;5.20;;
58553;SDS011;48119;53.218;6.576;2023-02-18T07:16:30;8.73;;;6.28;;
58553;SDS011;48119;53.218;6.576;2023-02-18T07:19:01;10.80;;;7.47;;
58553;SDS011;48119;53.218;6.576;2023-02-18T07:21:28;10.80;;;7.80;;
58553;SDS011;48119;53.218;6.576;2023-02-18T07:24:04;14.27;;;8.90;;
58553;SDS011;48119;53.218;6.576;2023-02-18T07:26:35;12.30;;;8.30;;
58553;SDS011;48119;53.218;6.576;2023-02-18T07:29:03;12.50;;;8.75;;
58553;SDS011;48119;53.218;6.576;2023-02-18T07:31:47;12.23;;;8.07;;
58553;SDS011;48119;53.218;6.576;2023-02-18T07:34:26;14.40;;;9.55;;
58553;SDS011;48119;53.218;6.576;2023-02-18T07:37:03;11.60;;;8.48;;
58553;SDS011;48119;53.218;6.576;2023-02-18T07:39:34;11.27;;;8.52;;
58553;SDS011;48119;53.218;6.576;2023-02-18T07:42:06;13.40;;;7.80;;
58553;SDS011;48119;53.218;6.576;2023-02-18T07:44:54;11.40;;;6.68;;
58553;SDS011;48119;53.218;6.576;2023-02-18T07:47:25;9.82;;;7.43;;
58553;SDS011;48119;53.218;6.576;2023-02-18T07:49:53;11.80;;;6.57;;
58553;SDS011;48119;53.218;6.576;2023-02-18T07:52:19;12.07;;;7.50;;
58553;SDS011;48119;53.218;6.576;2023-02-18T07:55:05;14.40;;;7.43;;
58553;SDS011;48119;53.218;6.576;2023-02-18T07:57:36;13.07;;;7.38;;
58553;SDS011;48119;53.218;6.576;2023-02-18T08:00:24;14.55;;;6.15;;
58553;SDS011;48119;53.218;6.576;2023-02-18T08:03:39;10.32;;;6.65;;
58553;SDS011;48119;53.218;6.576;2023-02-18T08:06:20;12.35;;;6.10;;
58553;SDS011;48119;53.218;6.576;2023-02-18T08:08:52;10.23;;;6.25;;
58553;SDS011;48119;53.218;6.576;2023-02-18T08:11:28;9.98;;;5.95;;
58553;SDS011;48119;53.218;6.576;2023-02-18T08:14:14;8.75;;;4.95;;
58553;SDS011;48119;53.218;6.576;2023-02-18T08:16:47;12.02;;;6.30;;
58553;SDS011;48119;53.218;6.576;2023-02-18T08:19:22;13.00;;;6.03;;
58553;SDS011;48119;53.218;6.576;2023-02-18T08:21:59;8.00;;;4.80;;
58553;SDS011;48119;53.218;6.576;2023-02-18T08:24:34;11.00;;;4.85;;
58553;SDS011;48119;53.218;6.576;2023-02-18T08:27:03;8.45;;;4.07;;
58553;SDS011;48119;53.218;6.576;2023-02-18T08:29:29;10.40;;;4.50;;
58553;SDS011;48119;53.218;6.576;2023-02-18T08:31:57;7.65;;;4.05;;
58553;SDS011;48119;53.218;6.576;2023-02-18T08:34:40;8.73;;;3.72;;
58553;SDS011;48119;53.218;6.576;2023-02-18T08:37:11;10.18;;;3.75;;
58553;SDS011;48119;53.218;6.576;2023-02-18T08:39:37;12.20;;;4.03;;
58553;SDS011;48119;53.218;6.576;2023-02-18T08:42:08;12.63;;;3.33;;
58553;SDS011;48119;53.218;6.576;2023-02-18T08:45:05;10.75;;;3.97;;
58553;SDS011;48119;53.218;6.576;2023-02-18T08:47:34;8.52;;;3.65;;
58553;SDS011;48119;53.218;6.576;2023-02-18T08:50:10;9.35;;;3.47;;
58553;SDS011;48119;53.218;6.576;2023-02-18T08:52:59;6.43;;;2.58;;
58553;SDS011;48119;53.218;6.576;2023-02-18T08:55:31;11.48;;;3.15;;
58553;SDS011;48119;53.218;6.576;2023-02-18T08:58:08;9.68;;;3.50;;
58553;SDS011;48119;53.218;6.576;2023-02-18T09:00:37;5.75;;;2.83;;
58553;SDS011;48119;53.218;6.576;2023-02-18T09:03:13;8.13;;;2.83;;
58553;SDS011;48119;53.218;6.576;2023-02-18T09:05:52;5.47;;;2.67;;
58553;SDS011;48119;53.218;6.576;2023-02-18T09:08:33;9.60;;;3.20;;
58553;SDS011;48119;53.218;6.576;2023-02-18T09:11:02;8.60;;;2.72;;
58553;SDS011;48119;53.218;6.576;2023-02-18T09:14:11;6.90;;;2.45;;
58553;SDS011;48119;53.218;6.576;2023-02-18T09:16:58;11.32;;;2.78;;
58553;SDS011;48119;53.218;6.576;2023-02-18T09:19:31;4.10;;;1.63;;
58553;SDS011;48119;53.218;6.576;2023-02-18T09:22:24;5.22;;;2.05;;
58553;SDS011;48119;53.218;6.576;2023-02-18T09:25:18;5.78;;;3.08;;
58553;SDS011;48119;53.218;6.576;2023-02-18T09:30:56;7.57;;;2.85;;
58553;SDS011;48119;53.218;6.576;2023-02-18T09:33:33;5.40;;;2.33;;
58553;SDS011;48119;53.218;6.576;2023-02-18T09:36:01;5.90;;;2.72;;
58553;SDS011;48119;53.218;6.576;2023-02-18T09:38:37;6.22;;;2.33;;
58553;SDS011;48119;53.218;6.576;2023-02-18T09:44:34;12.57;;;3.70;;
58553;SDS011;48119;53.218;6.576;2023-02-18T09:50:38;9.20;;;2.38;;
58553;SDS011;48119;53.218;6.576;2023-02-18T09:53:27;5.20;;;2.17;;
58553;SDS011;48119;53.218;6.576;2023-02-18T09:59:20;8.00;;;2.35;;
58553;SDS011;48119;53.218;6.576;2023-02-18T10:02:13;7.93;;;3.08;;
58553;SDS011;48119;53.218;6.576;2023-02-18T10:07:45;10.45;;;2.47;;
58553;SDS011;48119;53.218;6.576;2023-02-18T10:13:41;12.63;;;3.15;;
58553;SDS011;48119;53.218;6.576;2023-02-18T10:16:23;12.13;;;3.20;;
58553;SDS011;48119;53.218;6.576;2023-02-18T10:19:00;9.60;;;2.20;;
58553;SDS011;48119;53.218;6.576;2023-02-18T10:22:12;10.43;;;2.67;;
58553;SDS011;48119;53.218;6.576;2023-02-18T10:28:13;14.70;;;3.53;;
58553;SDS011;48119;53.218;6.576;2023-02-18T10:31:00;12.13;;;2.85;;
58553;SDS011;48119;53.218;6.576;2023-02-18T10:33:58;15.00;;;3.65;;
58553;SDS011;48119;53.218;6.576;2023-02-18T10:36:34;12.55;;;2.90;;
58553;SDS011;48119;53.218;6.576;2023-02-18T10:48:10;10.13;;;3.05;;
58553;SDS011;48119;53.218;6.576;2023-02-18T10:50:54;10.82;;;3.13;;
58553;SDS011;48119;53.218;6.576;2023-02-18T10:53:43;11.00;;;3.25;;
58553;SDS011;48119;53.218;6.576;2023-02-18T10:59:24;13.48;;;3.15;;
58553;SDS011;48119;53.218;6.576;2023-02-18T11:02:17;18.75;;;3.55;;
58553;SDS011;48119;53.218;6.576;2023-02-18T11:04:56;12.90;;;4.10;;
58553;SDS011;48119;53.218;6.576;2023-02-18T11:07:33;9.18;;;3.50;;
58553;SDS011;48119;53.218;6.576;2023-02-18T11:10:26;8.57;;;3.00;;
58553;SDS011;48119;53.218;6.576;2023-02-18T11:16:04;8.57;;;3.28;;
58553;SDS011;48119;53.218;6.576;2023-02-18T11:18:57;16.60;;;4.32;;
58553;SDS011;48119;53.218;6.576;2023-02-18T11:21:46;10.55;;;3.58;;
58553;SDS011;48119;53.218;6.576;2023-02-18T11:24:20;10.07;;;2.92;;
58553;SDS011;48119;53.218;6.576;2023-02-18T11:27:12;7.80;;;3.20;;
58553;SDS011;48119;53.218;6.576;2023-02-18T11:30:23;9.70;;;2.70;;
58553;SDS011;48119;53.218;6.576;2023-02-18T11:33:29;17.90;;;3.22;;
58553;SDS011;48119;53.218;6.576;2023-02-18T11:38:57;13.57;;;3.15;;
58553;SDS011;48119;53.218;6.576;2023-02-18T11:41:36;14.63;;;4.82;;
58553;SDS011;48119;53.218;6.576;2023-02-18T11:45:03;9.70;;;3.03;;
58553;SDS011;48119;53.218;6.576;2023-02-18T11:47:46;14.77;;;3.83;;
58553;SDS011;48119;53.218;6.576;2023-02-18T11:51:25;18.98;;;3.70;;
58553;SDS011;48119;53.218;6.576;2023-02-18T12:00:59;11.60;;;4.10;;
58553;SDS011;48119;53.218;6.576;2023-02-18T12:03:40;12.02;;;3.55;;
58553;SDS011;48119;53.218;6.576;2023-02-18T12:33:37;12.13;;;3.00;;
58553;SDS011;48119;53.218;6.576;2023-02-18T12:53:50;16.40;;;4.45;;
58553;SDS011;48119;53.218;6.576;2023-02-18T12:56:59;17.90;;;3.60;;
58553;SDS011;48119;53.218;6.576;2023-02-18T13:00:03;16.80;;;3.63;;
58553;SDS011;48119;53.218;6.576;2023-02-18T13:18:43;11.63;;;3.22;;
58553;SDS011;48119;53.218;6.576;2023-02-18T13:22:03;11.37;;;3.13;;
58553;SDS011;48119;53.218;6.576;2023-02-18T13:34:39;9.93;;;2.55;;
58553;SDS011;48119;53.218;6.576;2023-02-18T13:37:51;11.70;;;3.70;;
58553;SDS011;48119;53.218;6.576;2023-02-18T13:47:08;12.82;;;3.75;;
58553;SDS011;48119;53.218;6.576;2023-02-18T13:49:40;14.75;;;3.97;;
58553;SDS011;48119;53.218;6.576;2023-02-18T13:52:35;16.92;;;3.75;;
58553;SDS011;48119;53.218;6.576;2023-02-18T13:58:49;7.60;;;3.08;;
58553;SDS011;48119;53.218;6.576;2023-02-18T14:02:06;8.05;;;2.75;;
58553;SDS011;48119;53.218;6.576;2023-02-18T14:04:56;10.65;;;2.78;;
58553;SDS011;48119;53.218;6.576;2023-02-18T14:26:03;10.15;;;3.10;;
58553;SDS011;48119;53.218;6.576;2023-02-18T14:28:54;8.82;;;3.75;;
58553;SDS011;48119;53.218;6.576;2023-02-18T14:50:52;14.35;;;2.95;;
58553;SDS011;48119;53.218;6.576;2023-02-18T14:53:54;23.05;;;5.20;;
58553;SDS011;48119;53.218;6.576;2023-02-18T14:59:35;14.35;;;4.35;;
58553;SDS011;48119;53.218;6.576;2023-02-18T15:06:20;14.82;;;3.45;;
58553;SDS011;48119;53.218;6.576;2023-02-18T15:12:45;21.17;;;4.70;;
58553;SDS011;48119;53.218;6.576;2023-02-18T15:15:22;13.32;;;3.83;;
58553;SDS011;48119;53.218;6.576;2023-02-18T15:18:15;13.38;;;4.32;;
58553;SDS011;48119;53.218;6.576;2023-02-18T15:20:59;20.98;;;4.15;;
58553;SDS011;48119;53.218;6.576;2023-02-18T15:23:42;16.65;;;4.93;;
58553;SDS011;48119;53.218;6.576;2023-02-18T15:26:26;21.20;;;4.53;;
58553;SDS011;48119;53.218;6.576;2023-02-18T15:29:01;19.05;;;4.95;;
58553;SDS011;48119;53.218;6.576;2023-02-18T15:31:42;15.50;;;3.65;;
58553;SDS011;48119;53.218;6.576;2023-02-18T15:36:55;17.90;;;4.68;;
58553;SDS011;48119;53.218;6.576;2023-02-18T15:39:25;18.45;;;4.10;;
58553;SDS011;48119;53.218;6.576;2023-02-18T15:45:35;19.85;;;5.07;;
58553;SDS011;48119;53.218;6.576;2023-02-18T15:48:04;17.52;;;4.60;;
58553;SDS011;48119;53.218;6.576;2023-02-18T15:50:38;16.42;;;3.72;;
58553;SDS011;48119;53.218;6.576;2023-02-18T15:53:14;13.65;;;4.93;;
58553;SDS011;48119;53.218;6.576;2023-02-18T15:55:46;12.85;;;4.22;;
58553;SDS011;48119;53.218;6.576;2023-02-18T16:00:58;15.35;;;4.35;;
58553;SDS011;48119;53.218;6.576;2023-02-18T16:06:20;16.83;;;5.35;;
58553;SDS011;48119;53.218;6.576;2023-02-18T16:09:21;16.45;;;4.93;;
58553;SDS011;48119;53.218;6.576;2023-02-18T16:11:54;22.75;;;4.95;;
58553;SDS011;48119;53.218;6.576;2023-02-18T16:14:49;15.57;;;4.10;;
58553;SDS011;48119;53.218;6.576;2023-02-18T16:17:27;18.65;;;5.75;;
58553;SDS011;48119;53.218;6.576;2023-02-18T16:20:01;18.23;;;4.93;;
58553;SDS011;48119;53.218;6.576;2023-02-18T16:22:45;20.77;;;4.50;;
58553;SDS011;48119;53.218;6.576;2023-02-18T16:25:23;23.23;;;9.52;;
58553;SDS011;48119;53.218;6.576;2023-02-18T16:28:03;16.30;;;4.15;;
58553;SDS011;48119;53.218;6.576;2023-02-18T16:30:37;12.40;;;4.72;;
58553;SDS011;48119;53.218;6.576;2023-02-18T16:33:08;18.05;;;4.97;;
58553;SDS011;48119;53.218;6.576;2023-02-18T16:35:37;14.90;;;4.28;;
58553;SDS011;48119;53.218;6.576;2023-02-18T16:38:03;15.13;;;3.88;;
58553;SDS011;48119;53.218;6.576;2023-02-18T16:40:35;18.25;;;4.82;;
58553;SDS011;48119;53.218;6.576;2023-02-18T16:43:24;23.02;;;4.43;;
58553;SDS011;48119;53.218;6.576;2023-02-18T16:45:56;20.17;;;5.38;;
58553;SDS011;48119;53.218;6.576;2023-02-18T16:48:31;25.98;;;6.25;;
58553;SDS011;48119;53.218;6.576;2023-02-18T16:51:10;17.58;;;5.70;;
58553;SDS011;48119;53.218;6.576;2023-02-18T16:53:44;18.02;;;5.60;;
58553;SDS011;48119;53.218;6.576;2023-02-18T16:56:16;22.42;;;5.55;;
58553;SDS011;48119;53.218;6.576;2023-02-18T16:58:50;19.50;;;5.28;;
58553;SDS011;48119;53.218;6.576;2023-02-18T17:01:28;22.33;;;5.93;;
58553;SDS011;48119;53.218;6.576;2023-02-18T17:06:44;18.30;;;5.90;;
58553;SDS011;48119;53.218;6.576;2023-02-18T17:12:26;18.27;;;6.03;;
58553;SDS011;48119;53.218;6.576;2023-02-18T17:15:32;22.27;;;5.75;;
58553;SDS011;48119;53.218;6.576;2023-02-18T17:18:59;15.35;;;4.57;;
58553;SDS011;48119;53.218;6.576;2023-02-18T17:22:08;19.25;;;5.25;;
58553;SDS011;48119;53.218;6.576;2023-02-18T17:35:54;23.27;;;5.22;;
58553;SDS011;48119;53.218;6.576;2023-02-18T17:38:40;17.80;;;4.15;;
58553;SDS011;48119;53.218;6.576;2023-02-18T17:41:27;16.15;;;5.28;;
58553;SDS011;48119;53.218;6.576;2023-02-18T17:44:37;21.40;;;5.75;;
58553;SDS011;48119;53.218;6.576;2023-02-18T17:54:32;17.85;;;5.82;;
58553;SDS011;48119;53.218;6.576;2023-02-18T18:11:57;23.95;;;6.38;;
58553;SDS011;48119;53.218;6.576;2023-02-18T18:39:59;17.70;;;4.82;;
58553;SDS011;48119;53.218;6.576;2023-02-18T18:42:57;25.02;;;6.90;;
58553;SDS011;48119;53.218;6.576;2023-02-18T19:53:13;28.83;;;8.20;;
58553;SDS011;48119;53.218;6.576;2023-02-18T21:31:28;23.15;;;6.50;;
58553;SDS011;48119;53.218;6.576;2023-02-18T21:38:04;15.35;;;6.15;;
58553;SDS011;48119;53.218;6.576;2023-02-18T21:41:02;18.95;;;5.78;;
58553;SDS011;48119;53.218;6.576;2023-02-18T21:49:45;11.18;;;5.10;;
58553;SDS011;48119;53.218;6.576;2023-02-18T21:52:25;16.30;;;5.93;;
58553;SDS011;48119;53.218;6.576;2023-02-18T21:55:04;19.92;;;5.85;;
58553;SDS011;48119;53.218;6.576;2023-02-18T21:58:03;16.50;;;5.93;;
58553;SDS011;48119;53.218;6.576;2023-02-18T22:00:59;16.75;;;5.65;;
58553;SDS011;48119;53.218;6.576;2023-02-18T22:03:30;14.63;;;6.50;;
58553;SDS011;48119;53.218;6.576;2023-02-18T22:06:22;21.27;;;6.60;;
58553;SDS011;48119;53.218;6.576;2023-02-18T22:09:01;14.30;;;5.25;;
58553;SDS011;48119;53.218;6.576;2023-02-18T22:11:58;20.70;;;6.78;;
58553;SDS011;48119;53.218;6.576;2023-02-18T22:14:42;13.23;;;6.13;;
58553;SDS011;48119;53.218;6.576;2023-02-18T22:17:19;21.80;;;5.90;;
58553;SDS011;48119;53.218;6.576;2023-02-18T22:20:09;17.00;;;6.45;;
58553;SDS011;48119;53.218;6.576;2023-02-18T22:23:16;17.77;;;7.95;;
58553;SDS011;48119;53.218;6.576;2023-02-18T22:25:55;16.45;;;7.00;;
58553;SDS011;48119;53.218;6.576;2023-02-18T22:28:26;16.27;;;7.15;;
58553;SDS011;48119;53.218;6.576;2023-02-18T22:31:01;22.77;;;9.20;;
58553;SDS011;48119;53.218;6.576;2023-02-18T22:33:38;24.35;;;9.25;;
58553;SDS011;48119;53.218;6.576;2023-02-18T22:36:18;18.10;;;7.38;;
58553;SDS011;48119;53.218;6.576;2023-02-18T22:38:56;20.60;;;6.63;;
58553;SDS011;48119;53.218;6.576;2023-02-18T22:42:10;20.90;;;9.27;;
58553;SDS011;48119;53.218;6.576;2023-02-18T22:45:03;18.70;;;7.53;;
58553;SDS011;48119;53.218;6.576;2023-02-18T22:47:47;14.00;;;7.60;;
58553;SDS011;48119;53.218;6.576;2023-02-18T22:50:24;20.42;;;8.32;;
58553;SDS011;48119;53.218;6.576;2023-02-18T22:53:23;20.55;;;9.65;;
58553;SDS011;48119;53.218;6.576;2023-02-18T22:55:57;20.65;;;9.20;;
58553;SDS011;48119;53.218;6.576;2023-02-18T23:01:37;19.45;;;9.88;;
58553;SDS011;48119;53.218;6.576;2023-02-18T23:09:53;20.55;;;8.63;;
58553;SDS011;48119;53.218;6.576;2023-02-18T23:12:46;21.67;;;9.32;;
58553;SDS011;48119;53.218;6.576;2023-02-18T23:22:06;26.48;;;12.30;;
58553;SDS011;48119;53.218;6.576;2023-02-18T23:24:47;22.88;;;13.15;;
58553;SDS011;48119;53.218;6.576;2023-02-18T23:27:52;23.35;;;11.38;;
58553;SDS011;48119;53.218;6.576;2023-02-18T23:30:41;19.77;;;11.77;;
58553;SDS011;48119;53.218;6.576;2023-02-18T23:33:22;20.70;;;10.27;;
58553;SDS011;48119;53.218;6.576;2023-02-18T23:35:53;20.92;;;12.15;;
58553;SDS011;48119;53.218;6.576;2023-02-18T23:38:27;26.30;;;13.55;;
58553;SDS011;48119;53.218;6.576;2023-02-18T23:43:58;21.35;;;12.07;;
58553;SDS011;48119;53.218;6.576;2023-02-18T23:46:26;23.23;;;13.27;;
58553;SDS011;48119;53.218;6.576;2023-02-18T23:49:15;31.15;;;15.98;;
58553;SDS011;48119;53.218;6.576;2023-02-18T23:51:55;28.92;;;13.70;;
58553;SDS011;48119;53.218;6.576;2023-02-18T23:54:49;20.80;;;11.45;;
58553;SDS011;48119;53.218;6.576;2023-02-18T23:57:34;20.10;;;12.57;;
